sensor_id;sensor_type;location;lat;lon;timestamp;temperature;humidity
18575;DHT22;9417;16.484;102.872;2023-07-20T00:01:18;27.60;88.10
18575;DHT22;9417;16.484;102.872;2023-07-20T00:03:25;27.60;87.90
18575;DHT22;9417;16.484;102.872;2023-07-20T00:05:32;27.70;87.90
18575;DHT22;9417;16.484;102.872;2023-07-20T00:07:40;27.70;87.90
18575;DHT22;9417;16.484;102.872;2023-07-20T00:09:49;27.70;87.90
18575;DHT22;9417;16.484;102.872;2023-07-20T00:11:56;27.70;87.90
18575;DHT22;9417;16.484;102.872;2023-07-20T00:14:04;27.70;87.90
18575;DHT22;9417;16.484;102.872;2023-07-20T00:16:12;27.70;87.70
18575;DHT22;9417;16.484;102.872;2023-07-20T00:18:19;27.80;87.80
18575;DHT22;9417;16.484;102.872;2023-07-20T00:20:26;27.80;87.70
18575;DHT22;9417;16.484;102.872;2023-07-20T00:22:34;27.80;87.60
18575;DHT22;9417;16.484;102.872;2023-07-20T00:24:41;27.90;87.20
18575;DHT22;9417;16.484;102.872;2023-07-20T00:26:50;27.90;87.00
18575;DHT22;9417;16.484;102.872;2023-07-20T00:28:58;27.90;87.20
18575;DHT22;9417;16.484;102.872;2023-07-20T00:31:05;28.00;87.20
18575;DHT22;9417;16.484;102.872;2023-07-20T00:33:16;28.00;86.60
18575;DHT22;9417;16.484;102.872;2023-07-20T00:35:23;28.00;86.20
18575;DHT22;9417;16.484;102.872;2023-07-20T00:37:31;28.10;86.00
18575;DHT22;9417;16.484;102.872;2023-07-20T00:39:38;28.10;85.90
18575;DHT22;9417;16.484;102.872;2023-07-20T00:41:46;28.10;85.30
18575;DHT22;9417;16.484;102.872;2023-07-20T00:43:55;28.10;85.40
18575;DHT22;9417;16.484;102.872;2023-07-20T00:46:03;28.10;85.30
18575;DHT22;9417;16.484;102.872;2023-07-20T00:48:11;28.10;85.60
18575;DHT22;9417;16.484;102.872;2023-07-20T00:50:20;28.10;85.30
18575;DHT22;9417;16.484;102.872;2023-07-20T00:52:28;28.20;85.30
18575;DHT22;9417;16.484;102.872;2023-07-20T00:54:35;28.20;85.30
18575;DHT22;9417;16.484;102.872;2023-07-20T00:56:44;28.30;84.60
18575;DHT22;9417;16.484;102.872;2023-07-20T00:58:54;28.30;83.90
18575;DHT22;9417;16.484;102.872;2023-07-20T01:01:03;28.30;83.80
18575;DHT22;9417;16.484;102.872;2023-07-20T01:03:12;28.30;81.30
18575;DHT22;9417;16.484;102.872;2023-07-20T01:05:20;28.30;82.80
18575;DHT22;9417;16.484;102.872;2023-07-20T01:07:33;28.30;83.10
18575;DHT22;9417;16.484;102.872;2023-07-20T01:09:41;28.30;83.50
18575;DHT22;9417;16.484;102.872;2023-07-20T01:12:00;28.30;84.10
18575;DHT22;9417;16.484;102.872;2023-07-20T01:14:12;28.30;83.50
18575;DHT22;9417;16.484;102.872;2023-07-20T01:16:21;28.30;83.40
18575;DHT22;9417;16.484;102.872;2023-07-20T01:18:29;28.30;83.60
18575;DHT22;9417;16.484;102.872;2023-07-20T01:20:37;28.40;83.90
18575;DHT22;9417;16.484;102.872;2023-07-20T01:25:59;28.40;84.50
18575;DHT22;9417;16.484;102.872;2023-07-20T01:30:52;28.50;84.60
18575;DHT22;9417;16.484;102.872;2023-07-20T01:33:05;28.40;84.20
18575;DHT22;9417;16.484;102.872;2023-07-20T01:35:14;28.40;83.90
18575;DHT22;9417;16.484;102.872;2023-07-20T01:37:23;28.50;84.00
18575;DHT22;9417;16.484;102.872;2023-07-20T01:39:33;28.50;83.60
18575;DHT22;9417;16.484;102.872;2023-07-20T01:41:42;28.60;83.10
18575;DHT22;9417;16.484;102.872;2023-07-20T01:43:50;28.60;83.40
18575;DHT22;9417;16.484;102.872;2023-07-20T01:45:57;28.70;83.00
18575;DHT22;9417;16.484;102.872;2023-07-20T01:48:07;28.80;82.90
18575;DHT22;9417;16.484;102.872;2023-07-20T01:50:14;28.80;82.60
18575;DHT22;9417;16.484;102.872;2023-07-20T01:52:22;28.90;82.40
18575;DHT22;9417;16.484;102.872;2023-07-20T01:54:29;29.00;82.30
18575;DHT22;9417;16.484;102.872;2023-07-20T01:56:36;29.10;82.30
18575;DHT22;9417;16.484;102.872;2023-07-20T01:58:44;29.10;82.10
18575;DHT22;9417;16.484;102.872;2023-07-20T02:00:51;29.20;82.00
18575;DHT22;9417;16.484;102.872;2023-07-20T02:02:58;29.20;81.80
18575;DHT22;9417;16.484;102.872;2023-07-20T02:05:08;29.10;81.10
18575;DHT22;9417;16.484;102.872;2023-07-20T02:07:15;29.10;81.40
18575;DHT22;9417;16.484;102.872;2023-07-20T02:09:22;29.20;81.50
18575;DHT22;9417;16.484;102.872;2023-07-20T02:11:30;29.10;81.70
18575;DHT22;9417;16.484;102.872;2023-07-20T02:13:37;29.10;81.50
18575;DHT22;9417;16.484;102.872;2023-07-20T02:15:45;29.10;81.60
18575;DHT22;9417;16.484;102.872;2023-07-20T02:17:52;29.20;81.80
18575;DHT22;9417;16.484;102.872;2023-07-20T02:20:00;29.20;82.00
18575;DHT22;9417;16.484;102.872;2023-07-20T02:22:09;29.20;82.20
18575;DHT22;9417;16.484;102.872;2023-07-20T02:24:17;29.20;82.30
18575;DHT22;9417;16.484;102.872;2023-07-20T02:26:24;29.20;82.00
18575;DHT22;9417;16.484;102.872;2023-07-20T02:28:31;29.10;81.70
18575;DHT22;9417;16.484;102.872;2023-07-20T02:30:39;29.10;79.80
18575;DHT22;9417;16.484;102.872;2023-07-20T02:32:46;29.00;80.70
18575;DHT22;9417;16.484;102.872;2023-07-20T02:34:53;29.00;80.90
18575;DHT22;9417;16.484;102.872;2023-07-20T02:37:01;29.00;81.10
18575;DHT22;9417;16.484;102.872;2023-07-20T02:39:10;28.90;81.10
18575;DHT22;9417;16.484;102.872;2023-07-20T02:41:17;28.90;81.40
18575;DHT22;9417;16.484;102.872;2023-07-20T02:43:25;28.90;81.70
18575;DHT22;9417;16.484;102.872;2023-07-20T02:45:32;28.90;81.30
18575;DHT22;9417;16.484;102.872;2023-07-20T02:47:39;28.80;81.50
18575;DHT22;9417;16.484;102.872;2023-07-20T02:49:47;28.80;81.10
18575;DHT22;9417;16.484;102.872;2023-07-20T02:51:54;28.80;82.80
18575;DHT22;9417;16.484;102.872;2023-07-20T02:54:02;28.80;82.50
18575;DHT22;9417;16.484;102.872;2023-07-20T02:56:11;28.80;83.00
18575;DHT22;9417;16.484;102.872;2023-07-20T02:58:19;28.80;83.30
18575;DHT22;9417;16.484;102.872;2023-07-20T03:00:26;28.70;82.60
18575;DHT22;9417;16.484;102.872;2023-07-20T03:02:34;28.70;83.00
18575;DHT22;9417;16.484;102.872;2023-07-20T03:04:41;28.70;85.10
18575;DHT22;9417;16.484;102.872;2023-07-20T03:06:49;28.60;85.80
18575;DHT22;9417;16.484;102.872;2023-07-20T03:08:56;28.40;86.50
18575;DHT22;9417;16.484;102.872;2023-07-20T03:11:04;28.30;87.00
18575;DHT22;9417;16.484;102.872;2023-07-20T03:13:13;28.20;87.40
18575;DHT22;9417;16.484;102.872;2023-07-20T03:15:21;28.10;87.90
18575;DHT22;9417;16.484;102.872;2023-07-20T03:17:29;28.00;87.50
18575;DHT22;9417;16.484;102.872;2023-07-20T03:19:37;27.90;87.50
18575;DHT22;9417;16.484;102.872;2023-07-20T03:21:45;27.90;87.60
18575;DHT22;9417;16.484;102.872;2023-07-20T03:23:53;27.80;87.90
18575;DHT22;9417;16.484;102.872;2023-07-20T03:26:01;27.80;87.70
18575;DHT22;9417;16.484;102.872;2023-07-20T03:28:08;27.80;88.10
18575;DHT22;9417;16.484;102.872;2023-07-20T03:30:18;27.80;88.30
18575;DHT22;9417;16.484;102.872;2023-07-20T03:32:25;27.80;88.70
18575;DHT22;9417;16.484;102.872;2023-07-20T03:34:33;27.80;88.80
18575;DHT22;9417;16.484;102.872;2023-07-20T03:36:40;27.70;89.00
18575;DHT22;9417;16.484;102.872;2023-07-20T03:38:48;27.70;89.30
18575;DHT22;9417;16.484;102.872;2023-07-20T03:40:57;27.70;89.20
18575;DHT22;9417;16.484;102.872;2023-07-20T03:43:04;27.80;89.30
18575;DHT22;9417;16.484;102.872;2023-07-20T03:45:11;27.80;89.20
18575;DHT22;9417;16.484;102.872;2023-07-20T03:47:20;27.80;89.60
18575;DHT22;9417;16.484;102.872;2023-07-20T03:49:28;27.70;90.00
18575;DHT22;9417;16.484;102.872;2023-07-20T03:51:36;27.70;90.40
18575;DHT22;9417;16.484;102.872;2023-07-20T03:53:43;27.60;90.50
18575;DHT22;9417;16.484;102.872;2023-07-20T03:55:51;27.60;91.10
18575;DHT22;9417;16.484;102.872;2023-07-20T03:57:58;27.50;91.40
18575;DHT22;9417;16.484;102.872;2023-07-20T04:00:07;27.60;91.60
18575;DHT22;9417;16.484;102.872;2023-07-20T04:02:16;27.60;91.50
18575;DHT22;9417;16.484;102.872;2023-07-20T04:04:25;27.70;91.20
18575;DHT22;9417;16.484;102.872;2023-07-20T04:06:33;27.70;91.20
18575;DHT22;9417;16.484;102.872;2023-07-20T04:08:40;27.80;91.00
18575;DHT22;9417;16.484;102.872;2023-07-20T04:10:48;27.80;91.10
18575;DHT22;9417;16.484;102.872;2023-07-20T04:12:55;27.80;91.50
18575;DHT22;9417;16.484;102.872;2023-07-20T04:15:03;27.70;91.70
18575;DHT22;9417;16.484;102.872;2023-07-20T04:17:11;27.70;91.90
18575;DHT22;9417;16.484;102.872;2023-07-20T04:19:18;27.60;92.20
18575;DHT22;9417;16.484;102.872;2023-07-20T04:21:28;27.60;93.00
18575;DHT22;9417;16.484;102.872;2023-07-20T04:23:36;27.60;93.00
18575;DHT22;9417;16.484;102.872;2023-07-20T04:25:43;27.60;93.80
18575;DHT22;9417;16.484;102.872;2023-07-20T04:27:51;27.50;93.60
18575;DHT22;9417;16.484;102.872;2023-07-20T04:29:59;27.50;94.50
18575;DHT22;9417;16.484;102.872;2023-07-20T04:32:07;27.50;95.50
18575;DHT22;9417;16.484;102.872;2023-07-20T04:34:15;27.50;95.80
18575;DHT22;9417;16.484;102.872;2023-07-20T04:36:23;27.40;95.70
18575;DHT22;9417;16.484;102.872;2023-07-20T04:38:32;27.40;96.80
18575;DHT22;9417;16.484;102.872;2023-07-20T04:40:56;27.40;96.70
18575;DHT22;9417;16.484;102.872;2023-07-20T04:43:06;27.40;97.20
18575;DHT22;9417;16.484;102.872;2023-07-20T04:45:12;27.40;97.10
18575;DHT22;9417;16.484;102.872;2023-07-20T04:47:20;27.40;97.40
18575;DHT22;9417;16.484;102.872;2023-07-20T04:49:28;27.40;97.40
18575;DHT22;9417;16.484;102.872;2023-07-20T04:51:35;27.50;97.30
18575;DHT22;9417;16.484;102.872;2023-07-20T04:53:44;27.50;96.10
18575;DHT22;9417;16.484;102.872;2023-07-20T04:55:52;27.50;94.80
18575;DHT22;9417;16.484;102.872;2023-07-20T04:58:00;27.50;95.00
18575;DHT22;9417;16.484;102.872;2023-07-20T05:00:09;27.50;94.40
18575;DHT22;9417;16.484;102.872;2023-07-20T05:02:18;27.50;93.80
18575;DHT22;9417;16.484;102.872;2023-07-20T05:04:25;27.50;94.50
18575;DHT22;9417;16.484;102.872;2023-07-20T05:06:41;27.60;94.60
18575;DHT22;9417;16.484;102.872;2023-07-20T05:08:51;27.60;94.80
18575;DHT22;9417;16.484;102.872;2023-07-20T05:11:00;27.70;94.60
18575;DHT22;9417;16.484;102.872;2023-07-20T05:13:07;27.80;93.90
18575;DHT22;9417;16.484;102.872;2023-07-20T05:15:15;27.80;93.60
18575;DHT22;9417;16.484;102.872;2023-07-20T05:17:22;27.80;94.30
18575;DHT22;9417;16.484;102.872;2023-07-20T05:19:30;27.90;94.50
18575;DHT22;9417;16.484;102.872;2023-07-20T05:21:37;27.90;94.40
18575;DHT22;9417;16.484;102.872;2023-07-20T05:23:45;28.10;93.90
18575;DHT22;9417;16.484;102.872;2023-07-20T05:25:57;28.10;94.20
18575;DHT22;9417;16.484;102.872;2023-07-20T05:28:05;28.30;93.30
18575;DHT22;9417;16.484;102.872;2023-07-20T05:30:13;28.30;91.50
18575;DHT22;9417;16.484;102.872;2023-07-20T05:32:20;28.40;91.40
18575;DHT22;9417;16.484;102.872;2023-07-20T05:34:27;28.50;91.00
18575;DHT22;9417;16.484;102.872;2023-07-20T05:36:35;28.50;90.30
18575;DHT22;9417;16.484;102.872;2023-07-20T05:38:43;28.60;90.20
18575;DHT22;9417;16.484;102.872;2023-07-20T05:40:50;28.70;89.60
18575;DHT22;9417;16.484;102.872;2023-07-20T05:42:59;28.70;90.20
18575;DHT22;9417;16.484;102.872;2023-07-20T05:45:07;28.70;88.70
18575;DHT22;9417;16.484;102.872;2023-07-20T05:47:15;28.70;88.90
18575;DHT22;9417;16.484;102.872;2023-07-20T05:49:23;28.80;89.10
18575;DHT22;9417;16.484;102.872;2023-07-20T05:51:30;28.90;89.40
18575;DHT22;9417;16.484;102.872;2023-07-20T05:53:39;29.00;88.50
18575;DHT22;9417;16.484;102.872;2023-07-20T05:55:52;29.10;88.50
18575;DHT22;9417;16.484;102.872;2023-07-20T05:58:02;29.20;87.30
18575;DHT22;9417;16.484;102.872;2023-07-20T06:00:10;29.30;87.50
18575;DHT22;9417;16.484;102.872;2023-07-20T06:02:18;29.30;86.30
18575;DHT22;9417;16.484;102.872;2023-07-20T06:04:25;29.30;86.20
18575;DHT22;9417;16.484;102.872;2023-07-20T06:06:31;29.30;85.40
18575;DHT22;9417;16.484;102.872;2023-07-20T06:08:39;29.40;85.40
18575;DHT22;9417;16.484;102.872;2023-07-20T06:10:50;29.30;85.60
18575;DHT22;9417;16.484;102.872;2023-07-20T06:12:58;29.30;84.70
18575;DHT22;9417;16.484;102.872;2023-07-20T06:15:25;29.40;84.60
18575;DHT22;9417;16.484;102.872;2023-07-20T06:17:32;29.50;85.20
18575;DHT22;9417;16.484;102.872;2023-07-20T06:19:43;29.60;85.10
18575;DHT22;9417;16.484;102.872;2023-07-20T06:21:50;29.70;84.00
18575;DHT22;9417;16.484;102.872;2023-07-20T06:23:57;29.80;82.90
18575;DHT22;9417;16.484;102.872;2023-07-20T06:26:06;29.80;82.90
18575;DHT22;9417;16.484;102.872;2023-07-20T06:28:14;29.80;83.00
18575;DHT22;9417;16.484;102.872;2023-07-20T06:30:25;29.80;82.40
18575;DHT22;9417;16.484;102.872;2023-07-20T06:32:32;29.80;83.30
18575;DHT22;9417;16.484;102.872;2023-07-20T06:34:39;29.70;82.90
18575;DHT22;9417;16.484;102.872;2023-07-20T06:36:47;29.70;83.30
18575;DHT22;9417;16.484;102.872;2023-07-20T06:38:54;29.70;83.10
18575;DHT22;9417;16.484;102.872;2023-07-20T06:41:04;29.80;83.30
18575;DHT22;9417;16.484;102.872;2023-07-20T06:43:14;29.90;81.60
18575;DHT22;9417;16.484;102.872;2023-07-20T06:45:26;30.00;82.60
18575;DHT22;9417;16.484;102.872;2023-07-20T06:47:34;30.00;82.60
18575;DHT22;9417;16.484;102.872;2023-07-20T06:49:41;30.20;82.30
18575;DHT22;9417;16.484;102.872;2023-07-20T06:51:48;30.30;80.90
18575;DHT22;9417;16.484;102.872;2023-07-20T06:53:56;30.40;80.00
18575;DHT22;9417;16.484;102.872;2023-07-20T06:56:03;30.40;80.60
18575;DHT22;9417;16.484;102.872;2023-07-20T06:58:12;30.40;79.00
18575;DHT22;9417;16.484;102.872;2023-07-20T07:00:20;30.40;79.60
18575;DHT22;9417;16.484;102.872;2023-07-20T07:02:29;30.50;78.10
18575;DHT22;9417;16.484;102.872;2023-07-20T07:04:36;30.60;77.70
18575;DHT22;9417;16.484;102.872;2023-07-20T07:06:44;30.70;75.30
18575;DHT22;9417;16.484;102.872;2023-07-20T07:08:51;30.70;74.50
18575;DHT22;9417;16.484;102.872;2023-07-20T07:10:59;30.50;74.80
18575;DHT22;9417;16.484;102.872;2023-07-20T07:13:06;30.50;75.00
18575;DHT22;9417;16.484;102.872;2023-07-20T07:15:14;30.40;77.90
18575;DHT22;9417;16.484;102.872;2023-07-20T07:17:21;30.30;77.30
18575;DHT22;9417;16.484;102.872;2023-07-20T07:19:30;30.20;75.90
18575;DHT22;9417;16.484;102.872;2023-07-20T07:21:37;30.10;77.30
18575;DHT22;9417;16.484;102.872;2023-07-20T07:23:45;30.10;78.50
18575;DHT22;9417;16.484;102.872;2023-07-20T07:25:52;30.10;78.40
18575;DHT22;9417;16.484;102.872;2023-07-20T07:28:00;30.10;78.70
18575;DHT22;9417;16.484;102.872;2023-07-20T07:30:08;30.10;79.00
18575;DHT22;9417;16.484;102.872;2023-07-20T07:32:14;30.10;78.40
18575;DHT22;9417;16.484;102.872;2023-07-20T07:34:22;30.10;78.50
18575;DHT22;9417;16.484;102.872;2023-07-20T07:36:32;30.00;78.90
18575;DHT22;9417;16.484;102.872;2023-07-20T07:38:39;30.00;78.40
18575;DHT22;9417;16.484;102.872;2023-07-20T07:40:48;30.00;79.40
18575;DHT22;9417;16.484;102.872;2023-07-20T07:42:56;30.00;80.00
18575;DHT22;9417;16.484;102.872;2023-07-20T07:45:04;30.00;80.20
18575;DHT22;9417;16.484;102.872;2023-07-20T07:47:11;30.00;79.70
18575;DHT22;9417;16.484;102.872;2023-07-20T07:49:19;30.00;80.70
18575;DHT22;9417;16.484;102.872;2023-07-20T07:51:27;30.00;80.50
18575;DHT22;9417;16.484;102.872;2023-07-20T07:53:36;30.00;80.30
18575;DHT22;9417;16.484;102.872;2023-07-20T07:55:44;30.10;80.90
18575;DHT22;9417;16.484;102.872;2023-07-20T07:57:51;30.10;80.50
18575;DHT22;9417;16.484;102.872;2023-07-20T07:59:58;30.20;81.20
18575;DHT22;9417;16.484;102.872;2023-07-20T08:02:07;30.40;80.30
18575;DHT22;9417;16.484;102.872;2023-07-20T08:04:14;30.60;79.30
18575;DHT22;9417;16.484;102.872;2023-07-20T08:06:21;30.70;79.30
18575;DHT22;9417;16.484;102.872;2023-07-20T08:08:29;30.80;78.10
18575;DHT22;9417;16.484;102.872;2023-07-20T08:10:38;30.80;78.60
18575;DHT22;9417;16.484;102.872;2023-07-20T08:12:46;30.50;77.70
18575;DHT22;9417;16.484;102.872;2023-07-20T08:14:52;30.50;78.60
18575;DHT22;9417;16.484;102.872;2023-07-20T08:16:59;30.60;77.80
18575;DHT22;9417;16.484;102.872;2023-07-20T08:19:07;30.60;78.50
18575;DHT22;9417;16.484;102.872;2023-07-20T08:21:14;30.70;78.80
18575;DHT22;9417;16.484;102.872;2023-07-20T08:23:21;30.50;79.20
18575;DHT22;9417;16.484;102.872;2023-07-20T08:25:29;30.50;79.30
18575;DHT22;9417;16.484;102.872;2023-07-20T08:27:39;30.40;79.30
18575;DHT22;9417;16.484;102.872;2023-07-20T08:29:46;30.50;79.00
18575;DHT22;9417;16.484;102.872;2023-07-20T08:31:53;30.60;79.00
18575;DHT22;9417;16.484;102.872;2023-07-20T08:34:01;30.80;79.30
18575;DHT22;9417;16.484;102.872;2023-07-20T08:36:23;30.90;77.10
18575;DHT22;9417;16.484;102.872;2023-07-20T08:38:31;31.10;78.10
18575;DHT22;9417;16.484;102.872;2023-07-20T08:40:43;31.30;77.50
18575;DHT22;9417;16.484;102.872;2023-07-20T08:42:53;31.40;75.30
18575;DHT22;9417;16.484;102.872;2023-07-20T08:45:01;31.40;74.50
18575;DHT22;9417;16.484;102.872;2023-07-20T08:47:12;31.20;75.70
18575;DHT22;9417;16.484;102.872;2023-07-20T08:49:21;31.10;75.80
18575;DHT22;9417;16.484;102.872;2023-07-20T08:51:28;31.10;76.80
18575;DHT22;9417;16.484;102.872;2023-07-20T08:53:36;31.20;76.90
18575;DHT22;9417;16.484;102.872;2023-07-20T08:55:45;31.20;76.20
18575;DHT22;9417;16.484;102.872;2023-07-20T08:57:55;31.10;75.60
18575;DHT22;9417;16.484;102.872;2023-07-20T09:00:03;31.00;75.50
18575;DHT22;9417;16.484;102.872;2023-07-20T09:02:17;31.00;76.30
18575;DHT22;9417;16.484;102.872;2023-07-20T09:04:24;31.00;76.50
18575;DHT22;9417;16.484;102.872;2023-07-20T09:06:32;30.90;76.50
18575;DHT22;9417;16.484;102.872;2023-07-20T09:08:40;30.80;76.80
18575;DHT22;9417;16.484;102.872;2023-07-20T09:10:47;30.70;76.50
18575;DHT22;9417;16.484;102.872;2023-07-20T09:12:56;30.60;77.40
18575;DHT22;9417;16.484;102.872;2023-07-20T09:15:02;30.50;78.30
18575;DHT22;9417;16.484;102.872;2023-07-20T09:17:13;30.50;78.50
18575;DHT22;9417;16.484;102.872;2023-07-20T09:19:21;30.50;78.80
18575;DHT22;9417;16.484;102.872;2023-07-20T09:21:30;30.50;79.00
18575;DHT22;9417;16.484;102.872;2023-07-20T09:23:38;30.40;78.40
18575;DHT22;9417;16.484;102.872;2023-07-20T09:25:48;30.40;79.00
18575;DHT22;9417;16.484;102.872;2023-07-20T09:28:03;30.40;79.40
18575;DHT22;9417;16.484;102.872;2023-07-20T09:30:11;30.30;79.30
18575;DHT22;9417;16.484;102.872;2023-07-20T09:32:22;30.30;79.10
18575;DHT22;9417;16.484;102.872;2023-07-20T09:34:30;30.30;78.70
18575;DHT22;9417;16.484;102.872;2023-07-20T09:36:40;30.30;77.70
18575;DHT22;9417;16.484;102.872;2023-07-20T09:38:50;30.40;78.20
18575;DHT22;9417;16.484;102.872;2023-07-20T09:41:01;30.30;77.90
18575;DHT22;9417;16.484;102.872;2023-07-20T09:43:31;30.30;77.80
18575;DHT22;9417;16.484;102.872;2023-07-20T09:45:42;30.30;78.40
18575;DHT22;9417;16.484;102.872;2023-07-20T09:47:52;30.20;78.60
18575;DHT22;9417;16.484;102.872;2023-07-20T09:50:12;30.20;77.80
18575;DHT22;9417;16.484;102.872;2023-07-20T09:52:22;30.30;78.70
18575;DHT22;9417;16.484;102.872;2023-07-20T09:54:32;30.20;78.70
18575;DHT22;9417;16.484;102.872;2023-07-20T09:56:40;30.20;79.20
18575;DHT22;9417;16.484;102.872;2023-07-20T09:58:51;30.20;79.30
18575;DHT22;9417;16.484;102.872;2023-07-20T10:00:59;30.20;79.10
18575;DHT22;9417;16.484;102.872;2023-07-20T10:03:10;30.20;79.10
18575;DHT22;9417;16.484;102.872;2023-07-20T10:05:19;30.20;79.00
18575;DHT22;9417;16.484;102.872;2023-07-20T10:07:28;30.20;79.20
18575;DHT22;9417;16.484;102.872;2023-07-20T10:09:39;30.20;79.70
18575;DHT22;9417;16.484;102.872;2023-07-20T10:11:50;30.20;80.10
18575;DHT22;9417;16.484;102.872;2023-07-20T10:14:04;30.10;80.50
18575;DHT22;9417;16.484;102.872;2023-07-20T10:16:20;30.20;80.30
18575;DHT22;9417;16.484;102.872;2023-07-20T10:18:32;30.20;80.00
18575;DHT22;9417;16.484;102.872;2023-07-20T10:20:41;30.30;79.70
18575;DHT22;9417;16.484;102.872;2023-07-20T10:22:54;30.30;79.80
18575;DHT22;9417;16.484;102.872;2023-07-20T10:25:02;30.30;79.70
18575;DHT22;9417;16.484;102.872;2023-07-20T10:27:12;30.30;79.50
18575;DHT22;9417;16.484;102.872;2023-07-20T10:29:21;30.30;79.30
18575;DHT22;9417;16.484;102.872;2023-07-20T10:31:29;30.30;78.80
18575;DHT22;9417;16.484;102.872;2023-07-20T10:33:38;30.30;79.10
18575;DHT22;9417;16.484;102.872;2023-07-20T10:35:53;30.30;79.10
18575;DHT22;9417;16.484;102.872;2023-07-20T10:38:01;30.30;78.80
18575;DHT22;9417;16.484;102.872;2023-07-20T10:40:31;30.20;79.20
18575;DHT22;9417;16.484;102.872;2023-07-20T10:42:39;30.20;78.70
18575;DHT22;9417;16.484;102.872;2023-07-20T10:44:51;30.20;79.40
18575;DHT22;9417;16.484;102.872;2023-07-20T10:47:01;30.20;79.70
18575;DHT22;9417;16.484;102.872;2023-07-20T10:49:11;30.20;79.80
18575;DHT22;9417;16.484;102.872;2023-07-20T10:51:21;30.20;80.10
18575;DHT22;9417;16.484;102.872;2023-07-20T10:53:30;30.20;80.20
18575;DHT22;9417;16.484;102.872;2023-07-20T10:55:39;30.10;79.90
18575;DHT22;9417;16.484;102.872;2023-07-20T10:58:07;30.10;79.90
18575;DHT22;9417;16.484;102.872;2023-07-20T11:00:20;30.10;79.40
18575;DHT22;9417;16.484;102.872;2023-07-20T11:02:28;30.10;79.90
18575;DHT22;9417;16.484;102.872;2023-07-20T11:04:48;30.00;80.30
18575;DHT22;9417;16.484;102.872;2023-07-20T11:06:56;30.00;80.30
18575;DHT22;9417;16.484;102.872;2023-07-20T11:09:07;30.00;80.60
18575;DHT22;9417;16.484;102.872;2023-07-20T11:11:25;30.00;80.50
18575;DHT22;9417;16.484;102.872;2023-07-20T11:13:33;29.90;80.60
18575;DHT22;9417;16.484;102.872;2023-07-20T11:16:00;29.90;80.60
18575;DHT22;9417;16.484;102.872;2023-07-20T11:18:14;29.90;80.90
18575;DHT22;9417;16.484;102.872;2023-07-20T11:20:23;29.90;81.30
18575;DHT22;9417;16.484;102.872;2023-07-20T11:22:32;29.90;81.60
18575;DHT22;9417;16.484;102.872;2023-07-20T11:24:40;29.90;81.50
18575;DHT22;9417;16.484;102.872;2023-07-20T11:26:48;29.90;81.60
18575;DHT22;9417;16.484;102.872;2023-07-20T11:28:54;29.80;81.90
18575;DHT22;9417;16.484;102.872;2023-07-20T11:31:03;29.90;82.00
18575;DHT22;9417;16.484;102.872;2023-07-20T11:33:11;29.80;82.00
18575;DHT22;9417;16.484;102.872;2023-07-20T11:35:21;29.80;82.10
18575;DHT22;9417;16.484;102.872;2023-07-20T11:37:28;29.70;82.30
18575;DHT22;9417;16.484;102.872;2023-07-20T11:39:36;29.70;82.30
18575;DHT22;9417;16.484;102.872;2023-07-20T11:41:47;29.70;82.50
18575;DHT22;9417;16.484;102.872;2023-07-20T11:43:55;29.70;82.60
18575;DHT22;9417;16.484;102.872;2023-07-20T11:46:07;29.70;82.80
18575;DHT22;9417;16.484;102.872;2023-07-20T11:48:17;29.60;83.70
18575;DHT22;9417;16.484;102.872;2023-07-20T11:50:24;29.60;84.50
18575;DHT22;9417;16.484;102.872;2023-07-20T11:52:32;29.60;84.80
18575;DHT22;9417;16.484;102.872;2023-07-20T11:54:40;29.60;85.20
18575;DHT22;9417;16.484;102.872;2023-07-20T11:56:53;29.50;85.40
18575;DHT22;9417;16.484;102.872;2023-07-20T11:59:01;29.50;85.30
18575;DHT22;9417;16.484;102.872;2023-07-20T12:01:11;29.40;85.60
18575;DHT22;9417;16.484;102.872;2023-07-20T12:03:19;29.40;85.80
18575;DHT22;9417;16.484;102.872;2023-07-20T12:05:27;29.40;85.70
18575;DHT22;9417;16.484;102.872;2023-07-20T12:07:36;29.40;85.70
18575;DHT22;9417;16.484;102.872;2023-07-20T12:09:45;29.30;86.00
18575;DHT22;9417;16.484;102.872;2023-07-20T12:12:10;29.30;86.40
18575;DHT22;9417;16.484;102.872;2023-07-20T12:14:18;29.30;86.40
18575;DHT22;9417;16.484;102.872;2023-07-20T12:16:28;29.30;87.00
18575;DHT22;9417;16.484;102.872;2023-07-20T12:18:36;29.30;87.50
18575;DHT22;9417;16.484;102.872;2023-07-20T12:20:43;29.30;87.60
18575;DHT22;9417;16.484;102.872;2023-07-20T12:22:51;29.20;87.80
18575;DHT22;9417;16.484;102.872;2023-07-20T12:24:59;29.20;87.90
18575;DHT22;9417;16.484;102.872;2023-07-20T12:27:06;29.20;88.10
18575;DHT22;9417;16.484;102.872;2023-07-20T12:29:13;29.20;88.20
18575;DHT22;9417;16.484;102.872;2023-07-20T12:31:22;29.20;88.00
18575;DHT22;9417;16.484;102.872;2023-07-20T12:33:31;29.10;87.90
18575;DHT22;9417;16.484;102.872;2023-07-20T12:35:38;29.10;88.00
18575;DHT22;9417;16.484;102.872;2023-07-20T12:37:46;29.10;88.10
18575;DHT22;9417;16.484;102.872;2023-07-20T12:39:55;29.10;88.00
18575;DHT22;9417;16.484;102.872;2023-07-20T12:42:03;29.10;87.90
18575;DHT22;9417;16.484;102.872;2023-07-20T12:44:10;29.10;88.20
18575;DHT22;9417;16.484;102.872;2023-07-20T12:46:17;29.10;88.30
18575;DHT22;9417;16.484;102.872;2023-07-20T12:48:25;29.00;88.40
18575;DHT22;9417;16.484;102.872;2023-07-20T12:50:34;29.10;88.60
18575;DHT22;9417;16.484;102.872;2023-07-20T12:52:42;29.00;88.70
18575;DHT22;9417;16.484;102.872;2023-07-20T12:54:49;29.00;88.70
18575;DHT22;9417;16.484;102.872;2023-07-20T12:56:55;29.00;88.90
18575;DHT22;9417;16.484;102.872;2023-07-20T12:59:05;29.00;89.10
18575;DHT22;9417;16.484;102.872;2023-07-20T13:01:12;29.00;89.40
18575;DHT22;9417;16.484;102.872;2023-07-20T13:03:20;29.00;89.60
18575;DHT22;9417;16.484;102.872;2023-07-20T13:05:31;29.00;89.50
18575;DHT22;9417;16.484;102.872;2023-07-20T13:07:43;29.00;89.40
18575;DHT22;9417;16.484;102.872;2023-07-20T13:09:53;29.00;89.00
18575;DHT22;9417;16.484;102.872;2023-07-20T13:12:01;29.00;88.80
18575;DHT22;9417;16.484;102.872;2023-07-20T13:14:08;28.90;89.10
18575;DHT22;9417;16.484;102.872;2023-07-20T13:16:16;28.90;89.10
18575;DHT22;9417;16.484;102.872;2023-07-20T13:18:23;28.90;88.90
18575;DHT22;9417;16.484;102.872;2023-07-20T13:20:31;28.80;88.60
18575;DHT22;9417;16.484;102.872;2023-07-20T13:22:38;28.70;88.70
18575;DHT22;9417;16.484;102.872;2023-07-20T13:24:47;28.80;88.70
18575;DHT22;9417;16.484;102.872;2023-07-20T13:26:55;28.80;89.30